Terminal Aerodrome Forecast
Issued by NWS Cleveland, OH

Home | Current Version | Previous Version | Graphics & Text | Print | Product List | Glossary On
Versions: 1 2 3 4 5 6 7 8 9 10 11 12 13 14
000
FTUS41 KCLE 040524
TAFYNG
TAF
KYNG 040524Z 0406/0506 01004KT P6SM SCT050 BKN150
      TEMPO 0409/0413 4SM BR
     FM041400 36006KT P6SM SCT020 BKN200
     FM041800 33006KT P6SM SCT040
     FM050100 VRB02KT P6SM FEW250=

USA.gov is the U.S. government's official web portal to all federal, state and local government web resources and services.